Hovedside
METAR-TAF:

METAR-TAF

Lufthavner :

Karlstad lufthavn

Karlstad, Sverige

breddegrad: 59-26-41N, lengdegrad: 013-20-15E, høyde over havet: 107 m

Gjeldene værobservasjon

Denne rapporten ble laget for 33 minutter siden, klokken 19:20 UTC
Vind 11 kt fra Sør
Temperatur 19°C
Luftfuktighet 78%
Trykk 1010 hPa
Sikt: 9000 m

METAR: ESOK 161920Z 17011KT 9000 NSC 19/15 Q1010

Tid: 21:53 (19:53 UTC)

Varsel

Denne rapporten ble laget for 2 timer og 23 minutter siden, klokken 17:30 UTC
Varsel gyldig fra 16. klokken 18 UTC til 16. klokken 21 UTC
Vind 8 kt fra Sør
Sikt 10 km eller mer
Spredte skyer i en høyde av 3500 ft

TAF: ESOK 161730Z 1618/1621 18008KT 9999 SCT035

Værobservasjoner og værvarsel for over 4000 flyplasser (METAR- og TAF-rapporter).

Tilgjengelige stasjoner er representert av de røde og gule prikkene på kartet.

Hold musepekeren over prikken for å se navnet på stasjonen.

Klikk så for å se værobservasjoner og -varsler.

For å forandre kartet kan du klikke på den grønne knappen med svart kryss for å zoome inn, på den grønne knappen med strek for å zoome ut, eller på de grønne pilene for å se tilstøtende kart.


METAR-TAF: